KMLU/MLU METAR and TAF weather

Enter ICAO airport designator
Station Type Date Time Source
KMLU METAR 2019/09/21 04:53 UTC NOAA

KMLU 210453Z AUTO 00000KT 7SM BKN045 24/23 A3013 RMK AO2 SLP201 T02440233


Station Type Date Time Source
KMLU Decoded METAR 2019/09/21 04:53 UTC NOAA

MONROE REGIONAL AIRPORT, LA, United States (KMLU) 32-31N 092-02W 29M
Sep 21, 2019 - 12:53 AM EDT / 2019.09.21 0453 UTC
Wind: Calm:0
Visibility: 7 mile(s):0
Sky conditions: mostly cloudy
Temperature: 75.9 F (24.4 C)
Dew Point: 73.9 F (23.3 C)
Relative Humidity: 93%
Pressure (altimeter): 30.13 in. Hg (1020 hPa)
ob: KMLU 210453Z AUTO 00000KT 7SM BKN045 24/23 A3013 RMK AO2 SLP201 T02440233
cycle: 5

Station Type Date Time Source
KMLU TAF 2019/09/20 21:21 UTC NOAA

TAF
AMD KMLU 202118Z 2021/2118 22008KT P6SM VCSH SCT050 BKN070 OVC110
FM210000 15006KT P6SM SCT030 BKN060
FM210600 13004KT P6SM FEW015
FM211600 15007KT P6SM SCT020 SCT040

Example: see airport list